Time;durP1;ratioP1;P1;durP2;ratioP2;P2;SDS_P1;SDS_P2;PMS_P1;PMS_P2;Temp;Humidity;BMP_temperature;BMP_pressure;BME280_temperature;BME280_humidity;BME280_pressure;Samples;Min_cycle;Max_cycle;Signal;HPM_P1;HPM_P2
2022/12/12 00:00:58;;;;;;;10.13;5.83;;;0.40;99.90;;;;;;4144853;28;20280;-63
2022/12/12 00:02:59;;;;;;;9.53;6.40;;;0.40;99.90;;;;;;4144121;28;20248;-63
2022/12/12 00:05:00;;;;;;;10.97;5.80;;;0.40;99.90;;;;;;4144881;28;20740;-61
2022/12/12 00:07:01;;;;;;;9.83;6.03;;;0.40;99.90;;;;;;4144322;28;20267;-60
2022/12/12 00:09:03;;;;;;;11.70;6.20;;;0.40;99.90;;;;;;4144270;28;20342;-63
2022/12/12 00:11:05;;;;;;;19.13;9.43;;;0.40;99.90;;;;;;4158239;28;20278;-61
2022/12/12 00:13:06;;;;;;;18.13;9.03;;;0.40;99.90;;;;;;4151139;28;20379;-62
2022/12/12 00:15:08;;;;;;;11.20;6.60;;;0.50;99.90;;;;;;4149695;28;20279;-60
2022/12/12 00:17:09;;;;;;;8.93;5.47;;;0.50;99.90;;;;;;4147158;28;20279;-60
2022/12/12 00:19:10;;;;;;;10.67;6.60;;;0.50;99.90;;;;;;4148456;28;20341;-62
2022/12/12 00:21:17;;;;;;;12.80;7.03;;;0.50;99.90;;;;;;4147275;28;20302;-60
2022/12/12 00:23:18;;;;;;;18.43;10.37;;;0.50;99.90;;;;;;4147833;28;20263;-60
2022/12/12 00:25:19;;;;;;;15.77;8.67;;;0.50;99.90;;;;;;4148678;28;20317;-62
2022/12/12 00:27:20;;;;;;;10.77;5.93;;;0.50;99.90;;;;;;4150423;28;20267;-60
2022/12/12 00:29:21;;;;;;;8.20;5.53;;;0.50;99.90;;;;;;4146953;28;20263;-63
2022/12/12 00:31:23;;;;;;;7.87;4.80;;;0.50;99.90;;;;;;4148104;28;20298;-62
2022/12/12 00:33:24;;;;;;;9.40;5.33;;;0.50;99.90;;;;;;4147016;28;20287;-61
2022/12/12 00:35:25;;;;;;;6.80;5.00;;;0.60;99.90;;;;;;4148993;28;20683;-64
2022/12/12 00:37:26;;;;;;;11.27;6.33;;;0.50;99.90;;;;;;4146934;28;20683;-63
2022/12/12 00:39:27;;;;;;;13.47;7.47;;;0.60;99.90;;;;;;4147414;28;20275;-63
2022/12/12 00:41:28;;;;;;;10.57;6.10;;;0.60;99.90;;;;;;4147625;28;20334;-62
2022/12/12 00:43:30;;;;;;;8.27;5.10;;;0.60;99.90;;;;;;4155675;28;20321;-62
2022/12/12 00:45:31;;;;;;;9.23;5.23;;;0.60;99.90;;;;;;4164139;28;20317;-58
2022/12/12 00:47:32;;;;;;;9.40;4.93;;;0.60;99.90;;;;;;4163560;28;21086;-62
2022/12/12 00:49:33;;;;;;;9.23;5.47;;;0.60;99.90;;;;;;4164375;28;20325;-62
2022/12/12 00:51:34;;;;;;;9.00;5.93;;;0.60;99.90;;;;;;4163247;28;20266;-62
2022/12/12 00:53:36;;;;;;;10.37;5.83;;;0.60;99.90;;;;;;4163977;28;20298;-63
2022/12/12 00:55:38;;;;;;;10.13;5.60;;;0.70;99.90;;;;;;4162393;28;20279;-61
2022/12/12 00:57:39;;;;;;;9.20;5.23;;;0.70;99.90;;;;;;4164355;28;20329;-61
2022/12/12 00:59:41;;;;;;;10.17;5.53;;;0.60;99.90;;;;;;4162676;28;20266;-62
2022/12/12 01:01:44;;;;;;;11.57;6.23;;;0.60;99.90;;;;;;4164073;28;20330;-64
2022/12/12 01:03:46;;;;;;;9.57;5.97;;;0.70;99.90;;;;;;4162691;28;20283;-63
2022/12/12 01:05:47;;;;;;;11.83;6.40;;;0.70;99.90;;;;;;4163412;28;20275;-61
2022/12/12 01:07:48;;;;;;;11.30;5.60;;;0.70;99.90;;;;;;4159549;28;20349;-61
2022/12/12 01:09:49;;;;;;;8.00;5.30;;;0.70;99.90;;;;;;4148104;28;20298;-64
2022/12/12 01:11:50;;;;;;;8.33;5.20;;;0.70;99.90;;;;;;4147986;28;20263;-61
2022/12/12 01:13:53;;;;;;;7.93;5.13;;;0.70;99.90;;;;;;4146756;28;20275;-62
2022/12/12 01:15:54;;;;;;;7.20;4.70;;;0.70;99.90;;;;;;4145484;28;20267;-65
2022/12/12 01:17:55;;;;;;;8.30;5.07;;;0.70;99.90;;;;;;4158647;28;20770;-62
2022/12/12 01:19:56;;;;;;;10.13;4.37;;;0.70;99.90;;;;;;4163963;28;20313;-62
2022/12/12 01:21:57;;;;;;;5.90;4.17;;;0.70;99.90;;;;;;4162003;28;20267;-61
2022/12/12 01:24:00;;;;;;;7.43;4.27;;;0.70;99.90;;;;;;4163826;28;20896;-61
2022/12/12 01:26:03;;;;;;;8.97;4.60;;;0.70;99.90;;;;;;4162316;28;20592;-57
2022/12/12 01:28:05;;;;;;;6.83;4.53;;;0.70;99.90;;;;;;4161069;28;20295;-61
2022/12/12 01:30:09;;;;;;;7.10;4.03;;;0.70;99.90;;;;;;4158200;28;20268;-61
2022/12/12 01:32:10;;;;;;;6.57;3.93;;;0.70;99.90;;;;;;4156687;28;20279;-61
2022/12/12 01:34:12;;;;;;;6.40;4.40;;;0.70;99.90;;;;;;4145761;28;21063;-62
2022/12/12 01:36:15;;;;;;;7.27;4.23;;;0.70;99.90;;;;;;4153548;28;20337;-61
2022/12/12 01:38:16;;;;;;;8.37;4.40;;;0.60;99.90;;;;;;4152615;28;20264;-62
2022/12/12 01:40:22;;;;;;;6.30;4.43;;;0.70;99.90;;;;;;4146665;28;20346;-61
2022/12/12 01:42:23;;;;;;;7.00;3.87;;;0.70;99.90;;;;;;4145999;28;20806;-60
2022/12/12 01:44:43;;;;;;;8.00;4.60;;;0.60;99.90;;;;;;4147134;28;20280;-61
2022/12/12 01:46:44;;;;;;;11.23;4.90;;;0.70;99.90;;;;;;4146276;28;20263;-63
2022/12/12 01:48:51;;;;;;;9.20;4.80;;;0.70;99.90;;;;;;4146856;28;20350;-60
2022/12/12 01:50:53;;;;;;;8.20;4.10;;;0.70;99.90;;;;;;4146409;28;20271;-58
2022/12/12 01:52:55;;;;;;;8.43;4.50;;;0.70;99.90;;;;;;4146020;28;20260;-62
2022/12/12 01:54:59;;;;;;;7.37;4.47;;;0.60;99.90;;;;;;4146383;28;20779;-61
2022/12/12 01:57:06;;;;;;;7.17;4.47;;;0.70;99.90;;;;;;4145741;28;20830;-61
2022/12/12 01:59:10;;;;;;;8.83;4.50;;;0.70;99.90;;;;;;4146610;28;20291;-61
2022/12/12 02:01:12;;;;;;;7.57;4.47;;;0.70;99.90;;;;;;4145768;28;20748;-62
2022/12/12 02:03:14;;;;;;;7.23;4.07;;;0.60;99.90;;;;;;4146819;28;20272;-61
2022/12/12 02:05:26;;;;;;;9.73;3.87;;;0.70;99.90;;;;;;4145617;28;20264;-62
2022/12/12 02:07:27;;;;;;;8.10;4.80;;;0.70;99.90;;;;;;4146659;28;20322;-60
2022/12/12 02:09:29;;;;;;;8.93;4.17;;;0.70;99.90;;;;;;4145475;28;20379;-61
2022/12/12 02:11:34;;;;;;;6.77;4.43;;;0.70;99.90;;;;;;4146571;28;20341;-63
2022/12/12 02:13:35;;;;;;;7.20;4.50;;;0.70;99.90;;;;;;4145642;28;20644;-61
2022/12/12 02:16:13;;;;;;;7.40;4.07;;;0.70;99.90;;;;;;4146066;28;20314;-61
2022/12/12 02:18:32;;;;;;;9.10;4.90;;;0.70;99.90;;;;;;4145421;28;20725;-62
2022/12/12 02:20:39;;;;;;;5.97;4.27;;;0.70;99.90;;;;;;4146465;28;20267;-61
2022/12/12 02:23:19;;;;;;;6.23;3.73;;;0.70;99.90;;;;;;4144900;28;20829;-61
2022/12/12 02:25:41;;;;;;;7.57;4.87;;;0.70;99.90;;;;;;4115186;28;20744;-61
2022/12/12 02:27:51;;;;;;;6.53;4.20;;;0.70;99.90;;;;;;4145871;28;21008;-59
2022/12/12 02:30:08;;;;;;;8.13;4.65;;;0.70;99.90;;;;;;4145669;28;20291;-60
2022/12/12 02:32:19;;;;;;;7.83;4.07;;;0.70;99.90;;;;;;4148158;28;20100;-64
2022/12/12 02:34:29;;;;;;;8.63;4.93;;;0.70;99.90;;;;;;4142164;28;20279;-60
2022/12/12 02:36:39;;;;;;;7.35;4.32;;;0.70;99.90;;;;;;4146281;28;20276;-62
2022/12/12 02:38:49;;;;;;;6.20;4.03;;;0.70;99.90;;;;;;4145243;28;20541;-59
2022/12/12 02:40:58;;;;;;;7.20;4.28;;;0.70;99.90;;;;;;4145898;28;20046;-61
2022/12/12 02:43:12;;;;;;;9.00;4.90;;;0.70;99.90;;;;;;4146490;28;20536;-60
2022/12/12 02:45:30;;;;;;;8.23;4.63;;;0.70;99.90;;;;;;4152884;28;20278;-61
2022/12/12 02:47:34;;;;;;;8.97;4.80;;;0.70;99.90;;;;;;4142156;28;20311;-61
2022/12/12 02:49:46;;;;;;;7.83;4.83;;;0.70;99.90;;;;;;4145825;28;20295;-60
2022/12/12 02:51:49;;;;;;;6.37;4.13;;;0.70;99.90;;;;;;4144624;28;20263;-61
2022/12/12 02:53:51;;;;;;;6.80;4.57;;;0.70;99.90;;;;;;4143874;28;20307;-61
2022/12/12 02:56:42;;;;;;;8.53;5.50;;;0.70;99.90;;;;;;4145042;28;20287;-60
2022/12/12 02:58:43;;;;;;;7.23;4.20;;;0.70;99.90;;;;;;4145987;28;20280;-59
2022/12/12 03:00:55;;;;;;;8.97;5.10;;;0.70;99.90;;;;;;4145425;28;20279;-62
2022/12/12 03:08:47;;;;;;;10.83;4.60;;;0.70;99.90;;;;;;4145441;28;20046;-60
2022/12/12 03:10:58;;;;;;;11.40;4.27;;;0.60;99.90;;;;;;4146758;28;20334;-61
2022/12/12 03:13:07;;;;;;;;;;;0.60;99.90;;;;;;4162090;28;20267;-61
2022/12/12 03:15:17;;;;;;;6.67;4.40;;;0.70;99.90;;;;;;4161525;28;19905;-60
2022/12/12 03:17:24;;;;;;;8.07;4.40;;;0.70;99.90;;;;;;4161383;28;20266;-61
2022/12/12 03:19:31;;;;;;;9.63;4.50;;;0.70;99.90;;;;;;4161237;28;20801;-62
2022/12/12 03:21:59;;;;;;;9.63;4.93;;;0.60;99.90;;;;;;4144839;28;20326;-59
2022/12/12 03:24:07;;;;;;;7.70;4.27;;;0.60;99.90;;;;;;4145217;28;20712;-62
2022/12/12 03:26:24;;;;;;;7.93;5.43;;;0.60;99.90;;;;;;4144585;28;20321;-61
2022/12/12 03:28:37;;;;;;;8.93;4.97;;;0.60;99.90;;;;;;4144827;28;20291;-60
2022/12/12 03:30:42;;;;;;;9.40;4.63;;;0.60;99.90;;;;;;4144164;28;20279;-62
2022/12/12 03:32:43;;;;;;;9.13;5.17;;;0.60;99.90;;;;;;4144922;28;20276;-62
2022/12/12 03:34:53;;;;;;;9.40;5.17;;;0.50;99.90;;;;;;4149045;28;20271;-58
2022/12/12 03:37:23;;;;;;;8.18;4.80;;;0.60;99.90;;;;;;4157692;28;20271;-62
2022/12/12 03:39:51;;;;;;;8.40;5.25;;;0.60;99.90;;;;;;4160474;28;20041;-61
2022/12/12 03:42:03;;;;;;;8.07;4.67;;;0.60;99.90;;;;;;4161814;28;20022;-62
2022/12/12 03:44:16;;;;;;;9.33;4.67;;;0.60;99.90;;;;;;4158929;28;20283;-60
2022/12/12 03:46:38;;;;;;;8.80;5.40;;;0.60;99.90;;;;;;4143268;28;20299;-60
2022/12/12 03:48:48;;;;;;;9.87;5.33;;;0.60;99.90;;;;;;4128031;28;20287;-62
2022/12/12 03:51:03;;;;;;;8.80;4.73;;;0.60;99.90;;;;;;4128447;28;20330;-58
2022/12/12 03:53:39;;;;;;;9.43;5.40;;;0.60;99.90;;;;;;4127848;28;20832;-61
2022/12/12 03:55:53;;;;;;;10.43;5.07;;;0.60;99.90;;;;;;4121329;28;20338;-60
2022/12/12 03:58:08;;;;;;;8.67;4.67;;;0.60;99.90;;;;;;4127819;28;20268;-59
2022/12/12 04:00:13;;;;;;;8.53;5.03;;;0.60;99.90;;;;;;4129010;28;20732;-61
2022/12/12 04:02:28;;;;;;;10.20;5.30;;;0.60;99.90;;;;;;4127317;28;20280;-61
2022/12/12 04:04:38;;;;;;;8.30;4.53;;;0.60;99.90;;;;;;4128639;28;20268;-61
2022/12/12 04:07:05;;;;;;;6.90;4.60;;;0.60;99.90;;;;;;4128122;28;20285;-61
2022/12/12 04:14:24;;;;;;;8.87;4.90;;;0.70;99.90;;;;;;4160677;28;20282;-61
2022/12/12 04:16:31;;;;;;;8.73;5.20;;;0.60;99.90;;;;;;4161604;28;20262;-60
2022/12/12 04:18:51;;;;;;;10.37;6.03;;;0.70;99.90;;;;;;4160043;28;20313;-60
2022/12/12 04:24:03;;;;;;;10.27;5.30;;;0.60;99.90;;;;;;4160118;28;20038;-61
2022/12/12 04:26:38;;;;;;;9.37;4.83;;;0.60;99.90;;;;;;4161372;28;20673;-60
2022/12/12 04:28:49;;;;;;;9.83;5.03;;;0.60;99.90;;;;;;4160435;28;20291;-61
2022/12/12 04:30:50;;;;;;;8.77;4.53;;;0.60;99.90;;;;;;4160464;28;20266;-58
2022/12/12 04:33:13;;;;;;;9.80;5.20;;;0.60;99.90;;;;;;4160081;28;20821;-59
2022/12/12 04:35:22;;;;;;;8.10;4.47;;;0.60;99.90;;;;;;4160319;28;20336;-61
2022/12/12 04:37:29;;;;;;;7.63;4.57;;;0.60;99.90;;;;;;4156824;28;20274;-61
2022/12/12 04:39:33;;;;;;;7.80;4.67;;;0.60;99.90;;;;;;4140647;28;20259;-63
2022/12/12 04:41:37;;;;;;;8.17;4.77;;;0.60;99.90;;;;;;4153926;28;20759;-61
2022/12/12 04:43:42;;;;;;;10.47;5.23;;;0.60;99.90;;;;;;4156918;28;20291;-60
2022/12/12 04:45:56;;;;;;;7.60;4.67;;;0.50;99.90;;;;;;4143358;28;20734;-62
2022/12/12 04:47:59;;;;;;;7.77;5.03;;;0.50;99.90;;;;;;4144147;28;20683;-61
2022/12/12 04:50:01;;;;;;;13.00;6.20;;;0.60;99.90;;;;;;4143567;28;21008;-62
2022/12/12 04:52:07;;;;;;;9.70;5.30;;;0.60;99.90;;;;;;4144666;28;20725;-61
2022/12/12 04:54:14;;;;;;;12.03;6.63;;;0.60;99.90;;;;;;4143780;28;20287;-63
2022/12/12 04:56:18;;;;;;;10.80;5.73;;;0.60;99.90;;;;;;4144631;28;20780;-62
2022/12/12 04:58:20;;;;;;;9.97;5.30;;;0.60;99.90;;;;;;4143962;28;20283;-61
2022/12/12 05:00:23;;;;;;;12.97;6.43;;;0.60;99.90;;;;;;4145773;28;20275;-62
2022/12/12 05:02:52;;;;;;;11.20;6.17;;;0.60;99.90;;;;;;4146396;28;20326;-62
2022/12/12 05:05:04;;;;;;;13.10;5.57;;;0.60;99.90;;;;;;4147584;28;20264;-62
2022/12/12 05:07:12;;;;;;;7.10;4.33;;;0.60;99.90;;;;;;4129980;28;20264;-63
2022/12/12 05:09:16;;;;;;;7.53;4.43;;;0.70;99.90;;;;;;4159643;28;20887;-62
2022/12/12 05:11:17;;;;;;;7.37;4.13;;;0.70;99.90;;;;;;4146048;28;20288;-58
2022/12/12 05:13:22;;;;;;;9.60;5.27;;;0.70;99.90;;;;;;4147094;28;20329;-61
2022/12/12 05:15:23;;;;;;;11.23;4.63;;;0.70;99.90;;;;;;4144434;28;20279;-61
2022/12/12 05:17:29;;;;;;;10.67;4.93;;;0.70;99.90;;;;;;4146954;28;20818;-61
2022/12/12 05:19:31;;;;;;;9.53;5.23;;;0.70;99.90;;;;;;4145670;28;20728;-61
2022/12/12 05:21:32;;;;;;;7.70;4.53;;;0.80;99.90;;;;;;4147253;28;20733;-61
2022/12/12 05:23:33;;;;;;;8.50;5.00;;;0.80;99.90;;;;;;4145764;28;20275;-60
2022/12/12 05:25:34;;;;;;;8.37;4.90;;;0.80;99.90;;;;;;4155310;28;20279;-59
2022/12/12 05:27:35;;;;;;;12.47;5.10;;;0.80;99.90;;;;;;4151991;28;20274;-60
2022/12/12 05:29:37;;;;;;;8.13;4.90;;;0.80;99.90;;;;;;4145872;28;20303;-63
2022/12/12 05:31:38;;;;;;;12.00;5.63;;;0.80;99.90;;;;;;4146571;28;20271;-60
2022/12/12 05:33:39;;;;;;;9.13;5.13;;;0.80;99.90;;;;;;4146132;28;20597;-60
2022/12/12 05:35:40;;;;;;;9.33;5.10;;;0.80;99.90;;;;;;4145684;28;20282;-61
2022/12/12 05:37:42;;;;;;;10.07;5.17;;;0.70;99.90;;;;;;4145875;28;21101;-60
2022/12/12 05:39:43;;;;;;;13.20;6.47;;;0.70;99.90;;;;;;4146059;28;20267;-63
2022/12/12 05:41:44;;;;;;;10.43;5.73;;;0.70;99.90;;;;;;4149076;28;20299;-61
2022/12/12 05:43:45;;;;;;;8.00;4.93;;;0.70;99.90;;;;;;4148062;28;20306;-61
2022/12/12 05:45:46;;;;;;;10.00;5.30;;;0.70;99.90;;;;;;4148154;28;20271;-62
2022/12/12 05:47:47;;;;;;;8.93;4.57;;;0.70;99.90;;;;;;4146908;28;20625;-62
2022/12/12 05:49:49;;;;;;;10.53;5.40;;;0.80;99.90;;;;;;4145762;28;20361;-61
2022/12/12 05:51:50;;;;;;;8.67;4.90;;;0.70;99.90;;;;;;4146891;28;20346;-60
2022/12/12 05:53:51;;;;;;;8.80;4.33;;;0.70;99.90;;;;;;4145471;28;20306;-60
2022/12/12 05:55:52;;;;;;;12.10;5.77;;;0.80;99.90;;;;;;4160855;28;20321;-61
2022/12/12 05:57:53;;;;;;;11.07;5.67;;;0.70;99.90;;;;;;4161855;28;20682;-61
2022/12/12 05:59:54;;;;;;;14.30;5.40;;;0.80;99.90;;;;;;4154865;28;20252;-61
2022/12/12 06:01:55;;;;;;;10.17;4.90;;;0.80;99.90;;;;;;4147095;28;20279;-63
2022/12/12 06:03:57;;;;;;;10.53;5.80;;;0.80;99.90;;;;;;4146065;28;20346;-61
2022/12/12 06:05:58;;;;;;;9.23;5.50;;;0.80;99.90;;;;;;4145876;28;20263;-59
2022/12/12 06:08:00;;;;;;;9.03;5.33;;;0.80;99.90;;;;;;4146214;28;20330;-60
2022/12/12 06:10:01;;;;;;;11.60;5.50;;;0.70;99.90;;;;;;4146201;28;20342;-60
2022/12/12 06:12:02;;;;;;;11.20;6.17;;;0.70;99.90;;;;;;4144381;28;20670;-59
2022/12/12 06:14:03;;;;;;;9.30;5.90;;;0.70;99.90;;;;;;4146334;28;20280;-61
2022/12/12 06:16:09;;;;;;;10.77;6.07;;;0.80;99.90;;;;;;4145148;28;20341;-59
2022/12/12 06:18:11;;;;;;;10.53;6.47;;;0.80;99.90;;;;;;4145757;28;20327;-59
2022/12/12 06:20:12;;;;;;;18.90;5.90;;;0.80;99.90;;;;;;4145044;28;20275;-61
2022/12/12 06:22:13;;;;;;;10.57;6.10;;;0.80;99.90;;;;;;4146056;28;20735;-61
2022/12/12 06:24:14;;;;;;;10.10;5.97;;;0.70;99.90;;;;;;4145073;28;20271;-58
2022/12/12 06:26:17;;;;;;;11.50;5.77;;;0.70;99.90;;;;;;4146092;28;20267;-59
2022/12/12 06:28:19;;;;;;;10.03;6.10;;;0.70;99.90;;;;;;4144217;28;20726;-58
2022/12/12 06:30:20;;;;;;;14.00;6.97;;;0.80;99.90;;;;;;4146066;28;20300;-60
2022/12/12 06:32:21;;;;;;;9.83;5.87;;;0.80;99.90;;;;;;4144773;28;20325;-60
2022/12/12 06:34:22;;;;;;;11.17;6.30;;;0.80;99.90;;;;;;4145510;28;20264;-58
2022/12/12 06:36:24;;;;;;;11.93;6.37;;;0.80;99.90;;;;;;4145197;28;20302;-60
2022/12/12 06:38:26;;;;;;;11.90;6.57;;;0.90;99.90;;;;;;4144691;28;20298;-59
2022/12/12 06:40:27;;;;;;;11.47;6.47;;;0.90;99.90;;;;;;4145164;28;20265;-61
2022/12/12 06:42:28;;;;;;;10.53;6.27;;;0.90;99.90;;;;;;4144664;28;20263;-62
2022/12/12 06:44:29;;;;;;;10.53;5.47;;;0.90;99.90;;;;;;4145277;28;20756;-61
2022/12/12 06:46:30;;;;;;;13.57;6.40;;;0.90;99.90;;;;;;4144688;28;20267;-60
2022/12/12 06:48:32;;;;;;;9.30;5.40;;;0.90;99.90;;;;;;4145910;28;20309;-59
2022/12/12 06:50:37;;;;;;;12.43;6.63;;;0.80;99.90;;;;;;4144522;28;20303;-60
2022/12/12 06:52:38;;;;;;;34.63;16.63;;;0.90;99.90;;;;;;4145404;28;20267;-59
2022/12/12 06:54:39;;;;;;;25.87;13.13;;;0.90;99.90;;;;;;4143812;28;20295;-60
2022/12/12 06:56:41;;;;;;;17.20;9.83;;;0.80;99.90;;;;;;4145617;28;20333;-60
2022/12/12 06:58:42;;;;;;;16.93;8.90;;;0.90;99.90;;;;;;4144516;28;20267;-61
2022/12/12 07:00:43;;;;;;;15.67;8.47;;;0.90;99.90;;;;;;4145750;28;20325;-61
2022/12/12 07:02:44;;;;;;;20.83;9.77;;;0.90;99.90;;;;;;4144187;28;20345;-61
2022/12/12 07:04:45;;;;;;;16.83;9.30;;;0.90;99.90;;;;;;4145442;28;20276;-60
2022/12/12 07:06:46;;;;;;;16.43;8.60;;;0.90;99.90;;;;;;4144240;28;20734;-59
2022/12/12 07:08:48;;;;;;;13.30;7.33;;;1.00;99.90;;;;;;4144791;28;20272;-59
2022/12/12 07:10:49;;;;;;;24.07;12.03;;;0.90;99.90;;;;;;4145293;28;20326;-61
2022/12/12 07:12:50;;;;;;;17.67;7.83;;;0.90;99.90;;;;;;4144549;28;20694;-60
2022/12/12 07:14:52;;;;;;;13.77;6.93;;;0.90;99.90;;;;;;4145223;28;20259;-60
2022/12/12 07:16:53;;;;;;;19.30;9.00;;;0.90;99.90;;;;;;4144181;28;20259;-58
2022/12/12 07:18:54;;;;;;;17.80;9.17;;;0.90;99.90;;;;;;4145414;28;20279;-60
2022/12/12 07:20:55;;;;;;;20.70;9.07;;;0.90;99.90;;;;;;4144667;28;20760;-61
2022/12/12 07:22:56;;;;;;;18.27;8.90;;;1.00;99.90;;;;;;4144370;28;20337;-59
2022/12/12 07:24:57;;;;;;;14.90;7.40;;;1.00;99.90;;;;;;4144166;28;20255;-59
2022/12/12 07:26:58;;;;;;;14.97;7.30;;;0.80;99.90;;;;;;4145220;28;20306;-60
2022/12/12 07:29:02;;;;;;;13.43;7.10;;;0.80;99.90;;;;;;4144047;28;20315;-59
2022/12/12 07:31:12;;;;;;;14.60;7.53;;;0.80;99.90;;;;;;4145395;28;20337;-61
2022/12/12 07:33:18;;;;;;;14.55;7.80;;;0.80;99.90;;;;;;4144117;28;20325;-60
2022/12/12 07:35:20;;;;;;;16.37;7.97;;;0.70;99.90;;;;;;4145353;28;20095;-61
2022/12/12 07:37:21;;;;;;;15.87;8.13;;;0.80;99.90;;;;;;4143654;28;20283;-59
2022/12/12 07:39:22;;;;;;;17.40;9.67;;;0.80;99.90;;;;;;4144982;28;20272;-59
2022/12/12 07:41:23;;;;;;;19.43;9.10;;;0.80;99.90;;;;;;4143982;28;20760;-61
2022/12/12 07:43:24;;;;;;;17.27;8.73;;;0.90;99.90;;;;;;4144428;28;20271;-60
2022/12/12 07:45:25;;;;;;;23.90;10.80;;;0.80;99.90;;;;;;4144337;28;20330;-60
2022/12/12 07:47:26;;;;;;;22.20;10.27;;;0.80;99.90;;;;;;4144222;28;20589;-61
2022/12/12 07:49:28;;;;;;;20.53;10.63;;;0.80;99.90;;;;;;4144427;28;20303;-60
2022/12/12 07:51:30;;;;;;;18.40;9.20;;;0.80;99.90;;;;;;4144480;28;20275;-61
2022/12/12 07:53:31;;;;;;;21.67;9.70;;;0.80;99.90;;;;;;4143009;28;20775;-60
2022/12/12 07:55:33;;;;;;;16.67;9.13;;;0.70;99.90;;;;;;4143618;28;20369;-62
2022/12/12 07:57:34;;;;;;;20.00;10.10;;;0.70;99.90;;;;;;4144670;28;20752;-60
2022/12/12 07:59:35;;;;;;;18.03;9.00;;;0.60;99.90;;;;;;4143651;28;20322;-61
2022/12/12 08:01:36;;;;;;;18.17;8.73;;;0.60;99.90;;;;;;4145046;28;20272;-62
2022/12/12 08:03:37;;;;;;;20.27;10.10;;;0.60;99.90;;;;;;4143671;28;20295;-60
2022/12/12 08:05:40;;;;;;;19.77;10.00;;;0.60;99.90;;;;;;4145037;28;20267;-62
2022/12/12 08:07:41;;;;;;;20.27;10.23;;;0.50;99.90;;;;;;4143794;28;20330;-61
2022/12/12 08:09:43;;;;;;;21.07;9.23;;;0.60;99.90;;;;;;4143298;28;20279;-61
2022/12/12 08:11:44;;;;;;;21.70;9.97;;;0.50;99.90;;;;;;4143508;28;20330;-60
2022/12/12 08:13:45;;;;;;;22.40;10.43;;;0.50;99.90;;;;;;4142864;28;20275;-60
2022/12/12 08:15:46;;;;;;;23.17;10.67;;;0.50;99.90;;;;;;4144336;28;20353;-61
2022/12/12 08:17:47;;;;;;;20.37;10.73;;;0.50;99.90;;;;;;4144017;28;20329;-60
2022/12/12 08:19:48;;;;;;;22.80;10.93;;;0.60;99.90;;;;;;4144428;28;20861;-59
2022/12/12 08:21:49;;;;;;;24.33;10.80;;;0.50;99.90;;;;;;4143940;28;20299;-61
2022/12/12 08:23:53;;;;;;;27.47;10.27;;;0.50;99.90;;;;;;4145136;28;20283;-60
2022/12/12 08:25:54;;;;;;;18.17;9.23;;;0.50;99.90;;;;;;4143620;28;20821;-61
2022/12/12 08:27:55;;;;;;;16.80;9.17;;;0.50;99.90;;;;;;4144597;28;20326;-61
2022/12/12 08:29:57;;;;;;;15.63;8.00;;;0.40;99.90;;;;;;4143443;28;20701;-62
2022/12/12 08:31:58;;;;;;;23.17;10.67;;;0.50;99.90;;;;;;4144854;28;20272;-60
2022/12/12 08:34:00;;;;;;;25.13;10.17;;;0.50;99.90;;;;;;4143526;28;20809;-61
2022/12/12 08:36:29;;;;;;;22.20;10.47;;;0.50;99.90;;;;;;4146914;28;20326;-60
2022/12/12 08:38:30;;;;;;;20.67;9.83;;;0.50;99.90;;;;;;4146434;28;20268;-61
2022/12/12 08:40:33;;;;;;;22.40;8.90;;;0.50;99.90;;;;;;4147605;28;20264;-60
2022/12/12 08:42:34;;;;;;;20.63;10.20;;;0.50;99.90;;;;;;4146156;28;20260;-59
2022/12/12 08:44:35;;;;;;;18.17;9.33;;;0.50;99.90;;;;;;4147093;28;20724;-60
2022/12/12 08:46:37;;;;;;;20.47;10.57;;;0.50;99.90;;;;;;4146673;28;20255;-59
2022/12/12 08:48:38;;;;;;;21.77;9.67;;;0.50;99.90;;;;;;4147240;28;20318;-60
2022/12/12 08:50:40;;;;;;;26.63;10.17;;;0.50;99.90;;;;;;4146830;28;21275;-60
2022/12/12 08:52:41;;;;;;;22.23;9.93;;;0.50;99.90;;;;;;4147233;28;20330;-61
2022/12/12 08:54:42;;;;;;;19.07;10.27;;;0.50;99.90;;;;;;4146753;28;20268;-60
2022/12/12 08:56:43;;;;;;;20.07;9.20;;;0.60;99.90;;;;;;4146572;28;20273;-59
2022/12/12 08:58:45;;;;;;;18.77;10.33;;;0.60;99.90;;;;;;4146839;28;20346;-60
2022/12/12 09:00:46;;;;;;;21.80;10.77;;;0.60;99.90;;;;;;4146208;28;20382;-61
2022/12/12 09:02:47;;;;;;;21.83;10.60;;;0.70;99.90;;;;;;4147625;28;20275;-60
2022/12/12 09:04:48;;;;;;;22.57;10.47;;;0.70;99.90;;;;;;4146389;28;20664;-61
2022/12/12 09:06:49;;;;;;;29.37;11.30;;;0.70;99.90;;;;;;4146936;28;20267;-61
2022/12/12 09:08:51;;;;;;;30.10;14.17;;;0.70;99.90;;;;;;4146256;28;20272;-60
2022/12/12 09:10:52;;;;;;;30.43;13.57;;;0.70;99.90;;;;;;4147140;28;20341;-61
2022/12/12 09:12:54;;;;;;;24.33;12.33;;;0.70;99.90;;;;;;4146259;28;20264;-61
2022/12/12 09:14:57;;;;;;;25.03;11.93;;;0.70;99.90;;;;;;4147438;28;20332;-61
2022/12/12 09:16:58;;;;;;;23.47;11.13;;;0.70;99.90;;;;;;4146022;28;20267;-61
2022/12/12 09:18:59;;;;;;;21.50;11.63;;;0.70;99.90;;;;;;4147132;28;20330;-62
2022/12/12 09:21:00;;;;;;;22.47;12.70;;;0.70;99.90;;;;;;4146397;28;20276;-61
2022/12/12 09:23:01;;;;;;;20.73;10.27;;;0.70;99.90;;;;;;4146812;28;20582;-59
2022/12/12 09:25:04;;;;;;;23.83;11.07;;;0.70;99.90;;;;;;4144999;28;20296;-60
2022/12/12 09:27:06;;;;;;;22.20;11.60;;;0.80;99.90;;;;;;4146317;28;20310;-60
2022/12/12 09:29:08;;;;;;;23.73;11.53;;;0.80;99.90;;;;;;4146648;28;20629;-62
2022/12/12 09:31:11;;;;;;;18.60;10.33;;;0.90;99.90;;;;;;4145913;28;20291;-60
2022/12/12 09:33:13;;;;;;;21.03;11.50;;;0.90;99.90;;;;;;4146866;28;20263;-61
2022/12/12 09:35:14;;;;;;;22.37;11.27;;;0.90;99.90;;;;;;4145735;28;20275;-59
2022/12/12 09:37:16;;;;;;;23.80;10.90;;;0.90;99.90;;;;;;4146686;28;20267;-59
2022/12/12 09:39:18;;;;;;;21.63;11.00;;;1.00;99.90;;;;;;4145818;28;20291;-60
2022/12/12 09:41:29;;;;;;;21.37;10.30;;;1.00;99.90;;;;;;4147067;28;20313;-60
2022/12/12 09:43:33;;;;;;;19.97;10.40;;;1.00;99.90;;;;;;4145260;28;20385;-61
2022/12/12 09:45:36;;;;;;;20.03;11.27;;;1.10;99.90;;;;;;4146448;28;20327;-62
2022/12/12 09:48:06;;;;;;;20.67;10.53;;;1.00;99.90;;;;;;4145343;28;20276;-61
2022/12/12 09:50:28;;;;;;;30.60;11.55;;;1.10;99.90;;;;;;4137754;28;20345;-61
2022/12/12 09:52:32;;;;;;;27.90;11.93;;;1.20;99.90;;;;;;4145539;28;20092;-60
2022/12/12 09:54:33;;;;;;;20.80;10.87;;;1.20;99.90;;;;;;4146438;28;20279;-60
2022/12/12 09:57:03;;;;;;;23.60;10.43;;;1.20;99.90;;;;;;4145555;28;20386;-61
2022/12/12 09:59:14;;;;;;;21.52;10.63;;;1.30;99.90;;;;;;4146219;28;20287;-60
2022/12/12 10:01:23;;;;;;;19.90;10.40;;;1.10;99.90;;;;;;4144954;28;20141;-60
2022/12/12 10:03:42;;;;;;;19.37;10.53;;;1.20;99.90;;;;;;4146192;28;20341;-60
2022/12/12 10:05:46;;;;;;;20.40;10.00;;;1.20;99.90;;;;;;4145368;28;20740;-59
2022/12/12 10:08:02;;;;;;;21.43;9.77;;;1.40;99.90;;;;;;4146215;28;20390;-59
2022/12/12 10:10:03;;;;;;;16.43;8.87;;;1.40;99.90;;;;;;4145206;28;20360;-60
2022/12/12 10:12:10;;;;;;;14.53;7.93;;;1.30;99.90;;;;;;4146173;28;20747;-61
2022/12/12 10:14:12;;;;;;;16.53;8.90;;;1.30;99.90;;;;;;4145373;28;20252;-59
2022/12/12 10:16:14;;;;;;;21.37;9.40;;;1.20;99.90;;;;;;4145812;28;20259;-60
2022/12/12 10:18:25;;;;;;;17.53;8.80;;;1.20;99.90;;;;;;4144611;28;20857;-61
2022/12/12 10:20:30;;;;;;;;;;;1.10;99.90;;;;;;4146095;28;20313;-63
2022/12/12 10:22:42;;;;;;;16.10;8.47;;;1.10;99.90;;;;;;4144972;28;19956;-59
2022/12/12 10:24:55;;;;;;;18.27;8.40;;;1.00;99.90;;;;;;4145924;28;20251;-59
2022/12/12 10:26:57;;;;;;;20.60;8.57;;;0.90;99.90;;;;;;4144894;28;20275;-58
2022/12/12 10:29:20;;;;;;;15.10;8.23;;;1.00;99.90;;;;;;4145795;28;20263;-57
2022/12/12 10:31:51;;;;;;;16.67;8.30;;;1.00;99.90;;;;;;4144788;28;20290;-58
2022/12/12 10:34:13;;;;;;;18.93;9.10;;;1.00;99.90;;;;;;4145512;28;20283;-58
2022/12/12 10:36:36;;;;;;;17.17;8.87;;;0.90;99.90;;;;;;4134763;28;20383;-60
2022/12/12 10:39:07;;;;;;;18.07;8.83;;;0.90;99.90;;;;;;4145059;28;20264;-61
2022/12/12 10:41:28;;;;;;;19.17;9.33;;;0.90;99.90;;;;;;4145244;28;20330;-60
2022/12/12 10:43:58;;;;;;;26.50;10.43;;;0.90;99.90;;;;;;4144730;28;20256;-58
2022/12/12 10:46:16;;;;;;;16.97;8.93;;;0.90;99.90;;;;;;4144781;28;20771;-60
2022/12/12 10:48:17;;;;;;;20.50;8.53;;;0.90;99.90;;;;;;4144594;28;20906;-60
2022/12/12 10:50:18;;;;;;;17.23;8.90;;;0.90;99.90;;;;;;4143440;28;20329;-60
2022/12/12 10:52:21;;;;;;;22.77;8.73;;;1.00;99.90;;;;;;4144766;28;20267;-59
2022/12/12 10:54:26;;;;;;;23.63;9.00;;;1.00;99.90;;;;;;4145195;28;20357;-58
2022/12/12 10:56:30;;;;;;;16.40;8.50;;;1.00;99.90;;;;;;4144044;28;20357;-57
2022/12/12 10:58:40;;;;;;;17.90;8.33;;;1.00;99.90;;;;;;4144941;28;20740;-59
2022/12/12 11:00:44;;;;;;;21.33;8.73;;;1.00;99.90;;;;;;4143844;28;20728;-60
2022/12/12 11:02:45;;;;;;;16.53;7.00;;;1.00;99.90;;;;;;4145265;28;20333;-59
2022/12/12 11:04:47;;;;;;;16.33;8.33;;;1.00;99.90;;;;;;4144622;28;20259;-60
2022/12/12 11:06:51;;;;;;;21.73;9.20;;;1.00;99.90;;;;;;4144877;28;20267;-58
2022/12/12 11:08:55;;;;;;;17.73;8.27;;;1.10;99.90;;;;;;4144648;28;20341;-59
2022/12/12 11:11:20;;;;;;;19.73;9.13;;;1.20;99.90;;;;;;4144598;28;20291;-62